Terminal Aerodrome Forecast
Issued by NWS

Home | Current Version | Previous Version | Text Only | Print | Product List | Glossary On
Versions: 1 2 3 4 5 6 7 8 9 10 11 12
000
FTUS45 KVEF 311700
TAFEED
TAF
KEED 311737Z 3118/0118 VRB05KT P6SM FEW200
     FM311900 17010KT P6SM FEW200
     FM312100 19013G21KT P6SM SCT200
     FM010100 22011KT P6SM BKN200=

USA.gov is the U.S. government's official web portal to all federal, state and local government web resources and services.